sensor_id;sensor_type;location;lat;lon;timestamp;P1;durP1;ratioP1;P2;durP2;ratioP2
75311;SDS011;63906;55.686;37.532;2023-05-29T00:00:51;2.45;;;1.35;;
75311;SDS011;63906;55.686;37.532;2023-05-29T00:05:52;3.20;;;1.70;;
75311;SDS011;63906;55.686;37.532;2023-05-29T00:10:53;3.05;;;1.10;;
75311;SDS011;63906;55.686;37.532;2023-05-29T00:15:53;2.95;;;1.15;;
75311;SDS011;63906;55.686;37.532;2023-05-29T00:20:54;2.13;;;1.30;;
75311;SDS011;63906;55.686;37.532;2023-05-29T00:25:55;1.70;;;1.30;;
75311;SDS011;63906;55.686;37.532;2023-05-29T00:30:55;5.28;;;1.20;;
75311;SDS011;63906;55.686;37.532;2023-05-29T00:35:56;3.63;;;1.08;;
75311;SDS011;63906;55.686;37.532;2023-05-29T00:40:56;1.27;;;0.82;;
75311;SDS011;63906;55.686;37.532;2023-05-29T00:51:00;4.05;;;1.67;;
75311;SDS011;63906;55.686;37.532;2023-05-29T00:56:01;3.22;;;1.25;;
75311;SDS011;63906;55.686;37.532;2023-05-29T01:01:02;2.95;;;1.33;;
75311;SDS011;63906;55.686;37.532;2023-05-29T01:06:03;2.38;;;1.20;;
75311;SDS011;63906;55.686;37.532;2023-05-29T01:11:20;1.90;;;0.98;;
75311;SDS011;63906;55.686;37.532;2023-05-29T01:16:42;2.13;;;1.30;;
75311;SDS011;63906;55.686;37.532;2023-05-29T01:27:10;2.20;;;1.30;;
75311;SDS011;63906;55.686;37.532;2023-05-29T01:32:12;3.10;;;1.42;;
75311;SDS011;63906;55.686;37.532;2023-05-29T01:37:12;4.50;;;1.27;;
75311;SDS011;63906;55.686;37.532;2023-05-29T01:42:13;2.83;;;1.48;;
75311;SDS011;63906;55.686;37.532;2023-05-29T01:47:14;2.13;;;1.13;;
75311;SDS011;63906;55.686;37.532;2023-05-29T01:52:15;2.67;;;1.52;;
75311;SDS011;63906;55.686;37.532;2023-05-29T01:57:16;2.75;;;0.90;;
75311;SDS011;63906;55.686;37.532;2023-05-29T02:02:17;2.60;;;1.38;;
75311;SDS011;63906;55.686;37.532;2023-05-29T02:07:18;3.10;;;1.30;;
75311;SDS011;63906;55.686;37.532;2023-05-29T02:12:19;3.25;;;1.20;;
75311;SDS011;63906;55.686;37.532;2023-05-29T02:17:20;2.92;;;1.30;;
75311;SDS011;63906;55.686;37.532;2023-05-29T02:22:20;3.80;;;1.20;;
75311;SDS011;63906;55.686;37.532;2023-05-29T02:27:21;3.53;;;1.50;;
75311;SDS011;63906;55.686;37.532;2023-05-29T02:32:21;2.65;;;1.42;;
75311;SDS011;63906;55.686;37.532;2023-05-29T02:37:22;3.13;;;1.63;;
75311;SDS011;63906;55.686;37.532;2023-05-29T02:42:25;3.42;;;1.30;;
75311;SDS011;63906;55.686;37.532;2023-05-29T02:47:26;2.75;;;1.20;;
75311;SDS011;63906;55.686;37.532;2023-05-29T02:52:26;2.00;;;1.50;;
75311;SDS011;63906;55.686;37.532;2023-05-29T02:57:27;3.72;;;1.30;;
75311;SDS011;63906;55.686;37.532;2023-05-29T03:02:27;2.88;;;1.80;;
75311;SDS011;63906;55.686;37.532;2023-05-29T03:07:28;2.40;;;1.10;;
75311;SDS011;63906;55.686;37.532;2023-05-29T03:12:29;3.78;;;1.20;;
75311;SDS011;63906;55.686;37.532;2023-05-29T03:17:29;2.40;;;1.00;;
75311;SDS011;63906;55.686;37.532;2023-05-29T03:22:30;3.92;;;1.35;;
75311;SDS011;63906;55.686;37.532;2023-05-29T03:27:30;4.57;;;1.60;;
75311;SDS011;63906;55.686;37.532;2023-05-29T03:32:31;3.40;;;1.33;;
75311;SDS011;63906;55.686;37.532;2023-05-29T03:37:32;3.00;;;1.23;;
75311;SDS011;63906;55.686;37.532;2023-05-29T03:42:32;2.95;;;1.50;;
75311;SDS011;63906;55.686;37.532;2023-05-29T03:47:33;1.50;;;1.10;;
75311;SDS011;63906;55.686;37.532;2023-05-29T03:52:34;2.78;;;1.30;;
75311;SDS011;63906;55.686;37.532;2023-05-29T03:57:34;3.53;;;1.60;;
75311;SDS011;63906;55.686;37.532;2023-05-29T04:02:36;5.38;;;1.48;;
75311;SDS011;63906;55.686;37.532;2023-05-29T04:07:41;2.83;;;1.15;;
75311;SDS011;63906;55.686;37.532;2023-05-29T04:17:42;3.30;;;1.27;;
75311;SDS011;63906;55.686;37.532;2023-05-29T04:22:43;1.65;;;0.98;;
75311;SDS011;63906;55.686;37.532;2023-05-29T04:27:46;1.48;;;0.90;;
75311;SDS011;63906;55.686;37.532;2023-05-29T04:32:49;1.77;;;0.75;;
75311;SDS011;63906;55.686;37.532;2023-05-29T04:37:52;4.20;;;1.20;;
75311;SDS011;63906;55.686;37.532;2023-05-29T04:42:53;3.58;;;1.40;;
75311;SDS011;63906;55.686;37.532;2023-05-29T04:47:53;2.78;;;1.42;;
75311;SDS011;63906;55.686;37.532;2023-05-29T04:52:55;2.67;;;1.40;;
75311;SDS011;63906;55.686;37.532;2023-05-29T04:57:57;2.67;;;1.20;;
75311;SDS011;63906;55.686;37.532;2023-05-29T05:02:58;4.38;;;1.17;;
75311;SDS011;63906;55.686;37.532;2023-05-29T05:07:58;3.13;;;1.00;;
75311;SDS011;63906;55.686;37.532;2023-05-29T05:12:59;2.10;;;1.00;;
75311;SDS011;63906;55.686;37.532;2023-05-29T05:18:02;1.83;;;0.90;;
75311;SDS011;63906;55.686;37.532;2023-05-29T05:28:04;1.60;;;0.97;;
75311;SDS011;63906;55.686;37.532;2023-05-29T05:33:05;3.00;;;0.82;;
75311;SDS011;63906;55.686;37.532;2023-05-29T05:38:05;3.67;;;1.15;;
75311;SDS011;63906;55.686;37.532;2023-05-29T05:43:06;1.05;;;0.73;;
75311;SDS011;63906;55.686;37.532;2023-05-29T05:48:07;2.05;;;0.82;;
75311;SDS011;63906;55.686;37.532;2023-05-29T05:53:08;4.53;;;1.35;;
75311;SDS011;63906;55.686;37.532;2023-05-29T05:58:09;3.70;;;1.20;;
75311;SDS011;63906;55.686;37.532;2023-05-29T06:03:09;4.13;;;1.33;;
75311;SDS011;63906;55.686;37.532;2023-05-29T06:08:13;2.15;;;1.13;;
75311;SDS011;63906;55.686;37.532;2023-05-29T06:18:17;1.92;;;0.88;;
75311;SDS011;63906;55.686;37.532;2023-05-29T06:23:17;1.98;;;0.60;;
75311;SDS011;63906;55.686;37.532;2023-05-29T06:28:18;0.95;;;0.38;;
75311;SDS011;63906;55.686;37.532;2023-05-29T06:33:18;0.90;;;0.65;;
75311;SDS011;63906;55.686;37.532;2023-05-29T06:38:20;0.88;;;0.43;;
75311;SDS011;63906;55.686;37.532;2023-05-29T06:43:21;0.90;;;0.60;;
75311;SDS011;63906;55.686;37.532;2023-05-29T06:48:21;1.60;;;0.68;;
75311;SDS011;63906;55.686;37.532;2023-05-29T06:53:22;0.80;;;0.60;;
75311;SDS011;63906;55.686;37.532;2023-05-29T06:58:22;0.68;;;0.30;;
75311;SDS011;63906;55.686;37.532;2023-05-29T07:03:26;1.75;;;0.75;;
75311;SDS011;63906;55.686;37.532;2023-05-29T07:08:27;1.10;;;0.35;;
75311;SDS011;63906;55.686;37.532;2023-05-29T07:13:28;1.63;;;0.60;;
75311;SDS011;63906;55.686;37.532;2023-05-29T07:18:28;0.98;;;0.60;;
75311;SDS011;63906;55.686;37.532;2023-05-29T07:23:29;1.48;;;0.65;;
75311;SDS011;63906;55.686;37.532;2023-05-29T07:28:29;0.82;;;0.45;;
75311;SDS011;63906;55.686;37.532;2023-05-29T07:33:30;5.32;;;0.85;;
75311;SDS011;63906;55.686;37.532;2023-05-29T07:38:30;1.35;;;0.60;;
75311;SDS011;63906;55.686;37.532;2023-05-29T07:43:31;6.38;;;0.70;;
75311;SDS011;63906;55.686;37.532;2023-05-29T07:48:31;3.70;;;0.70;;
75311;SDS011;63906;55.686;37.532;2023-05-29T07:53:32;1.30;;;0.70;;
75311;SDS011;63906;55.686;37.532;2023-05-29T07:58:32;0.98;;;0.57;;
75311;SDS011;63906;55.686;37.532;2023-05-29T08:03:33;1.27;;;0.55;;
75311;SDS011;63906;55.686;37.532;2023-05-29T08:08:34;1.48;;;0.60;;
75311;SDS011;63906;55.686;37.532;2023-05-29T08:13:34;1.02;;;0.60;;
75311;SDS011;63906;55.686;37.532;2023-05-29T08:18:35;1.00;;;0.43;;
75311;SDS011;63906;55.686;37.532;2023-05-29T08:23:36;0.75;;;0.47;;
75311;SDS011;63906;55.686;37.532;2023-05-29T08:28:37;0.93;;;0.35;;
75311;SDS011;63906;55.686;37.532;2023-05-29T08:33:37;2.20;;;0.70;;
75311;SDS011;63906;55.686;37.532;2023-05-29T08:38:38;2.88;;;0.47;;
75311;SDS011;63906;55.686;37.532;2023-05-29T08:43:39;2.45;;;0.65;;
75311;SDS011;63906;55.686;37.532;2023-05-29T08:48:43;1.30;;;0.60;;
75311;SDS011;63906;55.686;37.532;2023-05-29T08:53:51;1.17;;;0.70;;
75311;SDS011;63906;55.686;37.532;2023-05-29T08:58:52;1.38;;;0.80;;
75311;SDS011;63906;55.686;37.532;2023-05-29T09:03:53;1.52;;;0.93;;
75311;SDS011;63906;55.686;37.532;2023-05-29T09:08:54;1.15;;;0.70;;
75311;SDS011;63906;55.686;37.532;2023-05-29T09:13:56;1.63;;;0.60;;
75311;SDS011;63906;55.686;37.532;2023-05-29T09:19:05;1.77;;;0.75;;
75311;SDS011;63906;55.686;37.532;2023-05-29T09:24:09;2.15;;;1.00;;
75311;SDS011;63906;55.686;37.532;2023-05-29T09:29:09;1.02;;;0.50;;
75311;SDS011;63906;55.686;37.532;2023-05-29T09:34:12;1.02;;;0.50;;
75311;SDS011;63906;55.686;37.532;2023-05-29T09:39:13;1.23;;;0.70;;
75311;SDS011;63906;55.686;37.532;2023-05-29T09:49:15;2.20;;;0.90;;
75311;SDS011;63906;55.686;37.532;2023-05-29T09:54:17;0.95;;;0.70;;
75311;SDS011;63906;55.686;37.532;2023-05-29T09:59:19;1.40;;;0.50;;
75311;SDS011;63906;55.686;37.532;2023-05-29T10:04:21;2.25;;;0.82;;
75311;SDS011;63906;55.686;37.532;2023-05-29T10:14:25;1.85;;;0.63;;
75311;SDS011;63906;55.686;37.532;2023-05-29T10:19:29;3.25;;;0.65;;
75311;SDS011;63906;55.686;37.532;2023-05-29T10:24:32;0.65;;;0.55;;
75311;SDS011;63906;55.686;37.532;2023-05-29T10:29:37;1.58;;;0.60;;
75311;SDS011;63906;55.686;37.532;2023-05-29T10:40:06;1.33;;;0.82;;
75311;SDS011;63906;55.686;37.532;2023-05-29T10:50:40;1.48;;;0.70;;
75311;SDS011;63906;55.686;37.532;2023-05-29T10:55:41;1.17;;;0.70;;
75311;SDS011;63906;55.686;37.532;2023-05-29T11:00:42;0.80;;;0.55;;
75311;SDS011;63906;55.686;37.532;2023-05-29T11:11:14;3.70;;;1.05;;
75311;SDS011;63906;55.686;37.532;2023-05-29T11:26:44;1.60;;;0.85;;
75311;SDS011;63906;55.686;37.532;2023-05-29T11:31:45;1.75;;;0.80;;
75311;SDS011;63906;55.686;37.532;2023-05-29T11:36:46;2.17;;;0.77;;
75311;SDS011;63906;55.686;37.532;2023-05-29T11:41:51;1.85;;;0.90;;
75311;SDS011;63906;55.686;37.532;2023-05-29T11:47:00;0.95;;;0.70;;
75311;SDS011;63906;55.686;37.532;2023-05-29T11:52:07;1.15;;;0.77;;
75311;SDS011;63906;55.686;37.532;2023-05-29T11:57:09;2.72;;;0.80;;
75311;SDS011;63906;55.686;37.532;2023-05-29T12:02:10;1.38;;;0.68;;
75311;SDS011;63906;55.686;37.532;2023-05-29T12:07:18;1.20;;;0.60;;
75311;SDS011;63906;55.686;37.532;2023-05-29T12:12:19;0.88;;;0.57;;
75311;SDS011;63906;55.686;37.532;2023-05-29T12:17:20;2.55;;;0.80;;
75311;SDS011;63906;55.686;37.532;2023-05-29T12:22:33;3.67;;;0.73;;
75311;SDS011;63906;55.686;37.532;2023-05-29T12:27:35;1.45;;;0.60;;
75311;SDS011;63906;55.686;37.532;2023-05-29T12:42:56;1.52;;;0.73;;
75311;SDS011;63906;55.686;37.532;2023-05-29T12:47:59;2.17;;;0.80;;
75311;SDS011;63906;55.686;37.532;2023-05-29T12:53:08;1.83;;;0.70;;
75311;SDS011;63906;55.686;37.532;2023-05-29T12:58:12;2.22;;;0.60;;
75311;SDS011;63906;55.686;37.532;2023-05-29T13:03:14;0.88;;;0.70;;
75311;SDS011;63906;55.686;37.532;2023-05-29T13:08:15;6.47;;;1.20;;
75311;SDS011;63906;55.686;37.532;2023-05-29T13:13:15;4.07;;;1.13;;
75311;SDS011;63906;55.686;37.532;2023-05-29T13:18:16;3.80;;;1.10;;
75311;SDS011;63906;55.686;37.532;2023-05-29T13:23:17;1.20;;;0.90;;
75311;SDS011;63906;55.686;37.532;2023-05-29T13:28:17;1.13;;;0.80;;
75311;SDS011;63906;55.686;37.532;2023-05-29T13:33:18;3.38;;;1.10;;
75311;SDS011;63906;55.686;37.532;2023-05-29T13:38:19;1.92;;;0.90;;
75311;SDS011;63906;55.686;37.532;2023-05-29T13:43:19;2.78;;;1.00;;
75311;SDS011;63906;55.686;37.532;2023-05-29T13:48:20;1.20;;;0.80;;
75311;SDS011;63906;55.686;37.532;2023-05-29T13:53:21;1.40;;;0.88;;
75311;SDS011;63906;55.686;37.532;2023-05-29T13:58:22;1.40;;;1.00;;
75311;SDS011;63906;55.686;37.532;2023-05-29T14:03:22;1.98;;;1.00;;
75311;SDS011;63906;55.686;37.532;2023-05-29T14:08:25;2.03;;;1.00;;
75311;SDS011;63906;55.686;37.532;2023-05-29T14:13:26;2.58;;;1.42;;
75311;SDS011;63906;55.686;37.532;2023-05-29T14:18:26;3.58;;;1.00;;
75311;SDS011;63906;55.686;37.532;2023-05-29T14:23:27;1.60;;;1.00;;
75311;SDS011;63906;55.686;37.532;2023-05-29T14:28:27;3.53;;;1.00;;
75311;SDS011;63906;55.686;37.532;2023-05-29T14:33:28;2.25;;;1.13;;
75311;SDS011;63906;55.686;37.532;2023-05-29T14:38:28;1.55;;;0.70;;
75311;SDS011;63906;55.686;37.532;2023-05-29T14:43:29;1.05;;;0.77;;
75311;SDS011;63906;55.686;37.532;2023-05-29T14:48:30;1.65;;;0.82;;
75311;SDS011;63906;55.686;37.532;2023-05-29T14:53:30;2.20;;;1.15;;
75311;SDS011;63906;55.686;37.532;2023-05-29T14:58:34;2.58;;;0.70;;
75311;SDS011;63906;55.686;37.532;2023-05-29T15:03:34;1.25;;;0.80;;
75311;SDS011;63906;55.686;37.532;2023-05-29T15:08:35;1.77;;;0.80;;
75311;SDS011;63906;55.686;37.532;2023-05-29T15:13:35;1.92;;;0.90;;
75311;SDS011;63906;55.686;37.532;2023-05-29T15:18:36;1.77;;;0.90;;
75311;SDS011;63906;55.686;37.532;2023-05-29T15:23:37;2.05;;;0.80;;
75311;SDS011;63906;55.686;37.532;2023-05-29T15:28:38;5.53;;;1.00;;
75311;SDS011;63906;55.686;37.532;2023-05-29T15:33:39;2.70;;;0.85;;
75311;SDS011;63906;55.686;37.532;2023-05-29T15:38:40;1.80;;;0.80;;
75311;SDS011;63906;55.686;37.532;2023-05-29T15:43:41;2.60;;;0.77;;
75311;SDS011;63906;55.686;37.532;2023-05-29T15:48:42;1.20;;;0.85;;
75311;SDS011;63906;55.686;37.532;2023-05-29T15:53:42;3.22;;;0.75;;
75311;SDS011;63906;55.686;37.532;2023-05-29T15:58:43;1.63;;;0.88;;
75311;SDS011;63906;55.686;37.532;2023-05-29T16:03:43;1.85;;;0.80;;
75311;SDS011;63906;55.686;37.532;2023-05-29T16:08:44;2.83;;;0.88;;
75311;SDS011;63906;55.686;37.532;2023-05-29T16:13:44;2.03;;;0.90;;
75311;SDS011;63906;55.686;37.532;2023-05-29T16:18:46;1.88;;;0.70;;
75311;SDS011;63906;55.686;37.532;2023-05-29T16:23:47;3.90;;;0.95;;
75311;SDS011;63906;55.686;37.532;2023-05-29T16:28:47;1.33;;;0.77;;
75311;SDS011;63906;55.686;37.532;2023-05-29T16:33:48;3.35;;;1.27;;
75311;SDS011;63906;55.686;37.532;2023-05-29T16:38:48;1.75;;;1.02;;
75311;SDS011;63906;55.686;37.532;2023-05-29T16:43:50;2.00;;;1.13;;
75311;SDS011;63906;55.686;37.532;2023-05-29T16:48:51;1.83;;;1.00;;
75311;SDS011;63906;55.686;37.532;2023-05-29T16:53:51;2.30;;;1.17;;
75311;SDS011;63906;55.686;37.532;2023-05-29T16:58:52;1.67;;;0.70;;
75311;SDS011;63906;55.686;37.532;2023-05-29T17:03:52;2.70;;;1.02;;
75311;SDS011;63906;55.686;37.532;2023-05-29T17:08:53;3.75;;;0.90;;
75311;SDS011;63906;55.686;37.532;2023-05-29T17:13:53;2.67;;;1.10;;
75311;SDS011;63906;55.686;37.532;2023-05-29T17:18:54;6.78;;;1.35;;
75311;SDS011;63906;55.686;37.532;2023-05-29T17:23:55;5.22;;;1.38;;
75311;SDS011;63906;55.686;37.532;2023-05-29T17:28:55;3.88;;;1.00;;
75311;SDS011;63906;55.686;37.532;2023-05-29T17:33:56;5.00;;;2.50;;
75311;SDS011;63906;55.686;37.532;2023-05-29T17:38:57;4.03;;;1.65;;
75311;SDS011;63906;55.686;37.532;2023-05-29T17:43:57;3.47;;;1.00;;
75311;SDS011;63906;55.686;37.532;2023-05-29T17:48:58;3.67;;;1.27;;
75311;SDS011;63906;55.686;37.532;2023-05-29T17:53:58;2.92;;;1.20;;
75311;SDS011;63906;55.686;37.532;2023-05-29T17:58:59;4.68;;;1.20;;
75311;SDS011;63906;55.686;37.532;2023-05-29T18:04:00;2.63;;;1.48;;
75311;SDS011;63906;55.686;37.532;2023-05-29T18:09:00;3.42;;;1.30;;
75311;SDS011;63906;55.686;37.532;2023-05-29T18:14:01;4.32;;;1.63;;
75311;SDS011;63906;55.686;37.532;2023-05-29T18:19:02;2.45;;;1.13;;
75311;SDS011;63906;55.686;37.532;2023-05-29T18:24:05;4.63;;;1.23;;
75311;SDS011;63906;55.686;37.532;2023-05-29T18:29:06;2.95;;;1.13;;
75311;SDS011;63906;55.686;37.532;2023-05-29T18:34:07;3.08;;;1.10;;
75311;SDS011;63906;55.686;37.532;2023-05-29T18:39:07;4.15;;;1.33;;
75311;SDS011;63906;55.686;37.532;2023-05-29T18:44:08;5.35;;;1.38;;
75311;SDS011;63906;55.686;37.532;2023-05-29T18:49:08;3.85;;;1.25;;
75311;SDS011;63906;55.686;37.532;2023-05-29T18:54:10;7.65;;;1.63;;
75311;SDS011;63906;55.686;37.532;2023-05-29T19:04:14;4.05;;;1.30;;
75311;SDS011;63906;55.686;37.532;2023-05-29T19:09:14;4.45;;;1.48;;
75311;SDS011;63906;55.686;37.532;2023-05-29T19:14:15;2.78;;;1.27;;
75311;SDS011;63906;55.686;37.532;2023-05-29T19:19:17;3.65;;;1.98;;
75311;SDS011;63906;55.686;37.532;2023-05-29T19:24:18;8.18;;;2.30;;
75311;SDS011;63906;55.686;37.532;2023-05-29T19:29:19;5.28;;;2.17;;
75311;SDS011;63906;55.686;37.532;2023-05-29T19:34:19;6.22;;;1.50;;
75311;SDS011;63906;55.686;37.532;2023-05-29T19:39:22;5.18;;;1.58;;
75311;SDS011;63906;55.686;37.532;2023-05-29T19:44:23;7.63;;;2.17;;
75311;SDS011;63906;55.686;37.532;2023-05-29T19:49:23;9.48;;;2.05;;
75311;SDS011;63906;55.686;37.532;2023-05-29T19:54:24;5.80;;;1.65;;
75311;SDS011;63906;55.686;37.532;2023-05-29T19:59:29;7.55;;;1.50;;
75311;SDS011;63906;55.686;37.532;2023-05-29T20:04:30;7.55;;;2.28;;
75311;SDS011;63906;55.686;37.532;2023-05-29T20:09:34;6.88;;;2.08;;
75311;SDS011;63906;55.686;37.532;2023-05-29T20:14:34;5.22;;;1.90;;
75311;SDS011;63906;55.686;37.532;2023-05-29T20:19:36;7.18;;;2.10;;
75311;SDS011;63906;55.686;37.532;2023-05-29T20:24:37;3.38;;;1.75;;
75311;SDS011;63906;55.686;37.532;2023-05-29T20:29:38;8.05;;;2.20;;
75311;SDS011;63906;55.686;37.532;2023-05-29T20:34:39;4.95;;;2.10;;
75311;SDS011;63906;55.686;37.532;2023-05-29T20:39:39;6.18;;;2.38;;
75311;SDS011;63906;55.686;37.532;2023-05-29T20:44:40;9.18;;;1.95;;
75311;SDS011;63906;55.686;37.532;2023-05-29T20:49:41;5.40;;;2.08;;
75311;SDS011;63906;55.686;37.532;2023-05-29T20:54:42;7.75;;;2.00;;
75311;SDS011;63906;55.686;37.532;2023-05-29T20:59:42;7.18;;;2.53;;
75311;SDS011;63906;55.686;37.532;2023-05-29T21:04:43;4.35;;;1.65;;
75311;SDS011;63906;55.686;37.532;2023-05-29T21:09:43;6.75;;;1.90;;
75311;SDS011;63906;55.686;37.532;2023-05-29T21:14:44;5.43;;;2.22;;
75311;SDS011;63906;55.686;37.532;2023-05-29T21:19:45;5.40;;;2.03;;
75311;SDS011;63906;55.686;37.532;2023-05-29T21:24:45;6.38;;;2.13;;
75311;SDS011;63906;55.686;37.532;2023-05-29T21:29:46;8.02;;;2.10;;
75311;SDS011;63906;55.686;37.532;2023-05-29T21:34:46;7.13;;;1.95;;
75311;SDS011;63906;55.686;37.532;2023-05-29T21:39:49;6.05;;;2.38;;
75311;SDS011;63906;55.686;37.532;2023-05-29T21:44:49;5.05;;;2.10;;
75311;SDS011;63906;55.686;37.532;2023-05-29T21:49:50;5.72;;;2.13;;
75311;SDS011;63906;55.686;37.532;2023-05-29T21:54:51;6.78;;;1.83;;
75311;SDS011;63906;55.686;37.532;2023-05-29T21:59:52;5.78;;;1.65;;
75311;SDS011;63906;55.686;37.532;2023-05-29T22:04:52;9.82;;;2.38;;
75311;SDS011;63906;55.686;37.532;2023-05-29T22:09:53;8.57;;;2.22;;
75311;SDS011;63906;55.686;37.532;2023-05-29T22:14:53;3.95;;;1.80;;
75311;SDS011;63906;55.686;37.532;2023-05-29T22:19:54;6.82;;;3.28;;
75311;SDS011;63906;55.686;37.532;2023-05-29T22:24:55;9.82;;;2.40;;
75311;SDS011;63906;55.686;37.532;2023-05-29T22:29:56;4.60;;;2.17;;
75311;SDS011;63906;55.686;37.532;2023-05-29T22:34:56;5.20;;;2.50;;
75311;SDS011;63906;55.686;37.532;2023-05-29T22:39:57;5.95;;;1.90;;
75311;SDS011;63906;55.686;37.532;2023-05-29T22:44:58;4.97;;;2.03;;
75311;SDS011;63906;55.686;37.532;2023-05-29T22:49:59;4.57;;;1.90;;
75311;SDS011;63906;55.686;37.532;2023-05-29T22:55:00;5.93;;;2.17;;
75311;SDS011;63906;55.686;37.532;2023-05-29T23:00:01;5.90;;;1.77;;
75311;SDS011;63906;55.686;37.532;2023-05-29T23:05:11;4.75;;;1.70;;
75311;SDS011;63906;55.686;37.532;2023-05-29T23:10:12;3.60;;;1.60;;
75311;SDS011;63906;55.686;37.532;2023-05-29T23:15:13;6.15;;;1.90;;
75311;SDS011;63906;55.686;37.532;2023-05-29T23:25:16;4.45;;;1.63;;
75311;SDS011;63906;55.686;37.532;2023-05-29T23:30:17;2.92;;;1.67;;
75311;SDS011;63906;55.686;37.532;2023-05-29T23:35:17;5.43;;;1.70;;
75311;SDS011;63906;55.686;37.532;2023-05-29T23:40:18;2.97;;;1.75;;
75311;SDS011;63906;55.686;37.532;2023-05-29T23:45:22;4.80;;;2.13;;
75311;SDS011;63906;55.686;37.532;2023-05-29T23:50:22;4.80;;;1.75;;
75311;SDS011;63906;55.686;37.532;2023-05-29T23:55:23;5.60;;;2.03;;
